Terminal Aerodrome Forecast
Issued by NWS Jackson, MS

Home | Current Version | Previous Version | Text Only | Print | Product List | Glossary On
Versions: 1 2 3 4 5 6 7 8 9 10 11 12 13
856
FTUS44 KJAN 301837 AAA
TAFGLH
TAF AMD
KGLH 301837Z 3019/0118 32013G18KT P6SM SKC
     FM302100 32008KT P6SM SKC
     FM010100 00000KT P6SM SKC
     FM011400 27003KT P6SM SKC=

USA.gov is the U.S. government's official web portal to all federal, state and local government web resources and services.